Palo Verde (357) Station Data

Red Flag Warning: No
Fire Weather Zone: 250
SDGE Region: Eastern
Lat/Lon: 32.813/-116.734

Observations

Time Wind Speed/Gust Temp(F) RH Fuel Moist Fuel Temp(F) Dewpt(F) Tmax(F) Tmin(F) Accum Precip 10-min Precip SL Press(mb)
6/22 5:00am 336 0 G 1 67° 39% - - 41° 70.3° 65.3° - - -
6/22 4:50am 52 1 G 2 68° 37% - - 41° 70.3° 65.3° - - -
6/22 4:40am 111 0 G 2 66° 42% - - 42° 70.3° 65.3° - - -
6/22 4:30am 291 0 G 1 66° 47% - - 45° 70.3° 65.4° - - -
6/22 4:20am 77 0 G 2 68° 41% - - 43° 70.3° 65.9° - - -
6/22 4:10am 80 0 G 2 68° 42% - - 44° 70.3° 65.9° - - -
6/22 4:00am 0 0 G 0 67° 48% - - 47° 70.3° 65.9° - - -
6/22 3:50am 0 0 G 0 67° 50% - - 47° 70.3° 65.9° - - -
6/22 3:40am 0 0 G 0 66° 52% - - 48° 70.3° 65.9° - - -
6/22 3:30am 232 0 G 1 68° 48% - - 47° 70.3° 65.9° - - -
6/22 3:20am 23 1 G 2 67° 48% - - 47° 70.3° 65.9° - - -
6/22 3:10am 51 0 G 1 67° 54% - - 50° 70.3° 65.9° - - -
6/22 3:00am 337 0 G 1 67° 54% - - 50° 70.3° 65.9° - - -
6/22 2:50am 344 0 G 1 67° 54% - - 50° 70.3° 65.9° - - -
6/22 2:40am 218 0 G 1 67° 52% - - 49° 70.3° 65.9° - - -
6/22 2:30am 58 1 G 2 67° 56% - - 50° 70.3° 65.9° - - -
6/22 2:20am 9 0 G 1 66° 60% - - 52° 70.3° 65.9° - - -
6/22 2:10am 44 0 G 1 67° 59% - - 52° 70.3° 66.3° - - -
6/22 2:00am 60 0 G 1 68° 59% - - 53° 70.3° 66.3° - - -
6/22 1:50am 73 1 G 3 67° 61% - - 54° 70.3° 66.3° - - -
6/22 1:40am 23 1 G 1 67° 65% - - 54° 70.3° 66.3° - - -
6/22 1:30am 330 0 G 1 67° 65% - - 55° 70.3° 66.5° - - -
6/22 1:20am 141 0 G 0 68° 63% - - 55° 70.3° 67.4° - - -
6/22 1:10am 74 1 G 3 70° 58% - - 54° 70.3° 67.9° - - -
6/22 1:00am 93 1 G 3 69° 60% - - 55° 70.1° 67.9° - - -
6/22 12:50am 0 0 G 0 69° 65% - - 56° 68.8° 67.9° - - -
6/22 12:40am 19 0 G 1 69° 65% - - 56° 68.7° 67.9° - - -
6/22 12:30am 0 0 G 0 68° 66% - - 57° 68.7° 67.9° - - -
6/22 12:20am 53 0 G 1 68° 67% - - 57° 68.7° 67.9° - - -
6/22 12:10am 0 0 G 0 68° 67% - - 57° 68.6° 67.9° - - -
6/22 12:00am 89 0 G 1 69° 68% - - 58° 96.7° 68.4° - - -
6/21 11:50pm 57 0 G 1 69° 68% - - 58° 96.7° 69° - - -
6/21 11:40pm 92 0 G 1 70° 65% - - 58° 96.7° 69.7° - - -
6/21 11:30pm 65 1 G 2 70° 64% - - 57° 96.7° 69.7° - - -
6/21 11:20pm 66 1 G 2 70° 63% - - 57° 96.7° 69.8° - - -
6/21 11:10pm 43 0 G 1 70° 63% - - 57° 96.7° 69.8° - - -
6/21 11:00pm 48 0 G 1 70° 63% - - 57° 96.7° 69.9° - - -
6/21 10:50pm 306 0 G 1 71° 61% - - 56° 96.7° 70° - - -
6/21 10:40pm 79 0 G 2 72° 60% - - 57° 96.7° 70.5° - - -
6/21 10:30pm 82 1 G 2 72° 59% - - 57° 96.7° 70.5° - - -
6/21 10:20pm 0 0 G 0 72° 59% - - 57° 96.7° 70.5° - - -
6/21 10:10pm 265 0 G 1 72° 58% - - 57° 96.7° 70.5° - - -
6/21 10:00pm 271 1 G 1 73° 57% - - 57° 96.7° 70.5° - - -
6/21 9:50pm 287 0 G 1 73° 56% - - 57° 96.7° 70.5° - - -
6/21 9:40pm 306 0 G 1 74° 55% - - 57° 96.7° 70.5° - - -
6/21 9:30pm 0 0 G 0 74° 54% - - 57° 96.7° 70.5° - - -
6/21 9:20pm 268 0 G 1 75° 53% - - 57° 96.7° 70.5° - - -
6/21 9:10pm 269 0 G 1 76° 52% - - 57° 96.7° 70.5° - - -
6/21 9:00pm 298 0 G 0 77° 51% - - 57° 96.7° 70.5° - - -
6/21 8:50pm 273 0 G 1 77° 51% - - 57° 96.7° 70.5° - - -
6/21 8:40pm 273 1 G 2 78° 49% - - 57° 96.7° 70.5° - - -
6/21 8:30pm 298 1 G 2 79° 47% - - 57° 96.7° 70.5° - - -
6/21 8:20pm 298 0 G 1 79° 46% - - 57° 96.7° 70.5° - - -
6/21 8:10pm 324 0 G 1 80° 44% - - 57° 96.7° 70.5° - - -
6/21 8:00pm 256 0 G 1 81° 43% - - 57° 96.7° 70.5° - - -
6/21 7:50pm 251 1 G 3 82° 41% - - 56° 96.7° 70.5° - - -
6/21 7:40pm 257 2 G 3 83° 40% - - 56° 96.7° 70.5° - - -
6/21 7:30pm 234 1 G 3 84° 39% - - 56° 96.7° 70.5° - - -
6/21 7:20pm 209 2 G 4 84° 39% - - 56° 96.7° 70.5° - - -
6/21 7:10pm 209 3 G 5 84° 38% - - 56° 96.7° 70.5° - - -
6/21 7:00pm 201 3 G 6 85° 37% - - 56° 96.7° 70.5° - - -
6/21 6:50pm 204 4 G 7 85° 37% - - 56° 96.7° 70.5° - - -
6/21 6:40pm 209 5 G 8 86° 35% - - 55° 96.7° 70.5° - - -
6/21 6:30pm 223 4 G 8 88° 31% - - 54° 96.7° 70.5° - - -
6/21 6:20pm 247 4 G 8 88° 29% - - 53° 96.7° 70.5° - - -
6/21 6:10pm 265 6 G 9 89° 29% - - 53° 96.7° 70.5° - - -
6/21 6:00pm 248 5 G 9 89° 28% - - 52° 96.7° 70.5° - - -
6/21 5:50pm 272 6 G 9 90° 27% - - 51° 96.7° 70.5° - - -
6/21 5:40pm 271 5 G 9 90° 26% - - 51° 96.7° 70.5° - - -
6/21 5:30pm 226 5 G 8 90° 29% - - 53° 96.7° 70.5° - - -
6/21 5:20pm 208 5 G 9 90° 30% - - 54° 96.7° 70.5° - - -
6/21 5:10pm 231 5 G 10 90° 28% - - 53° 96.7° 70.5° - - -
6/21 5:00pm 235 7 G 11 90° 28% - - 53° 96.7° 70.5° - - -
6/21 4:50pm 246 6 G 10 91° 27% - - 52° 96.7° 70.5° - - -
6/21 4:40pm 261 6 G 11 92° 26% - - 52° 96.7° 70.5° - - -
6/21 4:30pm 249 6 G 10 91° 28% - - 53° 96.7° 70.5° - - -
6/21 4:20pm 235 8 G 12 90° 29% - - 54° 96.7° 70.5° - - -
6/21 4:10pm 228 7 G 12 91° 28% - - 54° 96.7° 70.5° - - -
6/21 4:00pm 230 6 G 10 92° 26% - - 53° 96.7° 70.5° - - -
6/21 3:50pm 245 7 G 10 92° 26% - - 52° 96.7° 70.5° - - -
6/21 3:40pm 243 7 G 11 92° 26% - - 52° 96.7° 70.5° - - -
6/21 3:30pm 250 7 G 12 92° 26% - - 52° 96.7° 70.5° - - -
6/21 3:20pm 234 7 G 11 93° 25% - - 52° 96.7° 70.5° - - -
6/21 3:10pm 241 8 G 12 93° 25% - - 52° 96.7° 70.5° - - -
6/21 3:00pm 236 8 G 12 93° 25% - - 52° 96.7° 70.5° - - -
6/21 2:50pm 242 7 G 11 94° 24% - - 52° 96.7° 70.5° - - -
6/21 2:40pm 234 8 G 11 93° 25% - - 52° 96.7° 70.5° - - -
6/21 2:30pm 241 8 G 14 94° 25% - - 53° 96.7° 70.5° - - -
6/21 2:20pm 239 9 G 15 93° 25% - - 52° 96.7° 70.5° - - -
6/21 2:10pm 244 8 G 14 94° 24% - - 52° 96.7° 70.5° - - -
6/21 2:00pm 253 8 G 11 95° 24% - - 52° 96.7° 70.5° - - -
6/21 1:50pm 254 8 G 12 95° 22% - - 50° 96.7° 70.5° - - -
6/21 1:40pm 244 7 G 14 96° 20% - - 49° 96.7° 70.5° - - -
6/21 1:30pm 259 6 G 10 96° 18% - - 46° 96.7° 70.5° - - -
6/21 1:20pm 246 6 G 11 96° 19% - - 47° 96.7° 70.5° - - -
6/21 1:10pm 263 6 G 11 95° 21% - - 49° 96.5° 70.5° - - -
6/21 1:00pm 259 6 G 10 95° 21% - - 48° 96.5° 70.5° - - -
6/21 12:50pm 257 6 G 10 95° 22% - - 50° 96.5° 70.5° - - -
6/21 12:40pm 240 6 G 11 95° 20% - - 47° 96.5° 70.5° - - -
6/21 12:30pm 248 6 G 12 95° 21% - - 48° 96.5° 70.5° - - -
6/21 12:20pm 258 7 G 11 95° 20% - - 47° 96.5° 70.5° - - -
6/21 12:10pm 238 6 G 11 96° 19% - - 46° 96.3° 70.5° - - -
6/21 12:00pm 224 7 G 11 95° 18% - - 45° 96.3° 70.5° - - -
6/21 11:50am 216 6 G 10 95° 17% - - 44° 96.3° 70.5° - - -
6/21 11:40am 215 7 G 11 94° 19% - - 45° 95.5° 70.5° - - -
6/21 11:30am 223 6 G 11 95° 18% - - 45° 95.5° 70.5° - - -
6/21 11:20am 221 6 G 10 95° 18% - - 45° 95.2° 70.5° - - -
6/21 11:10am 221 6 G 10 95° 19% - - 45° 95.1° 70.5° - - -
6/21 11:00am 213 5 G 10 94° 19% - - 45° 94.7° 70.5° - - -
6/21 10:50am 210 5 G 9 94° 19% - - 46° 94.3° 70.5° - - -
6/21 10:40am 214 5 G 8 93° 20% - - 46° 93.2° 70.5° - - -
6/21 10:30am 229 4 G 7 93° 20% - - 46° 93.2° 70.5° - - -
6/21 10:20am 221 4 G 7 93° 20% - - 46° 92.9° 70.5° - - -
6/21 10:10am 205 5 G 8 92° 20% - - 45° 92.5° 70.5° - - -
6/21 10:00am 212 4 G 7 92° 20% - - 44° 92° 70.5° - - -
6/21 9:50am 210 4 G 6 92° 19% - - 44° 91.9° 70.5° - - -
6/21 9:40am 206 4 G 7 91° 19% - - 44° 91.8° 70.5° - - -
6/21 9:30am 223 3 G 5 91° 19% - - 43° 91.8° 70.5° - - -
6/21 9:20am 225 3 G 5 91° 19% - - 43° 91.1° 70.5° - - -
6/21 9:10am 279 1 G 4 90° 19% - - 43° 90.8° 70.5° - - -
6/21 9:00am 258 1 G 3 89° 20% - - 42° 89.3° 70.5° - - -
6/21 8:50am 278 2 G 3 88° 21% - - 42° 88° 70.5° - - -
6/21 8:40am 308 2 G 3 87° 21% - - 42° 87.4° 70.5° - - -
6/21 8:30am 286 1 G 2 85° 21% - - 41° 85.9° 70.5° - - -
6/21 8:20am 299 0 G 1 84° 22% - - 41° 84.8° 70.5° - - -
6/21 8:10am 274 1 G 1 82° 23% - - 40° 82.9° 70.5° - - -
6/21 8:00am 310 0 G 1 82° 24% - - 42° 82.2° 70.5° - - -
6/21 7:50am 293 0 G 1 80° 24% - - 40° 80.6° 70.5° - - -
6/21 7:40am 310 0 G 3 80° 23% - - 40° 80.6° 70.5° - - -
6/21 7:30am 340 0 G 1 80° 23% - - 39° 80.1° 70.5° - - -
6/21 7:20am 343 0 G 1 78° 24% - - 38° 78.9° 70.5° - - -
6/21 7:10am 328 1 G 2 77° 26% - - 39° 77.5° 70.5° - - -
6/21 7:00am 314 0 G 1 76° 27% - - 39° 76.6° 70.5° - - -
6/21 6:50am 0 0 G 1 74° 28% - - 39° 76.3° 70.5° - - -
6/21 6:40am 331 1 G 3 74° 28% - - 39° 76.3° 70.5° - - -
6/21 6:30am 52 1 G 4 73° 28% - - 38° 76.3° 70.5° - - -
6/21 6:20am 58 1 G 4 73° 27% - - 37° 76.3° 70.5° - - -
6/21 6:10am 60 2 G 5 73° 27% - - 37° 76.3° 70.5° - - -
6/21 6:00am 20 0 G 4 73° 29% - - 39° 76.3° 70.5° - - -
6/21 5:50am 51 2 G 5 74° 26% - - 37° 76.3° 70.5° - - -
6/21 5:40am 55 3 G 5 74° 27% - - 38° 76.3° 70.5° - - -
6/21 5:30am 54 2 G 5 74° 29% - - 40° 76.3° 70.5° - - -
6/21 5:20am 51 2 G 5 73° 31% - - 40° 76.3° 70.5° - - -
6/21 5:10am 31 1 G 4 72° 33% - - 41° 76.3° 70.5° - - -
6/21 5:00am 317 1 G 2 71° 37% - - 44° 76.3° 70.5° - - -
6/21 4:50am 40 2 G 5 72° 35% - - 43° 76.3° 70.6° - - -
6/21 4:40am 6 0 G 2 71° 37% - - 44° 76.3° 70.6° - - -
6/21 4:30am 36 1 G 4 72° 36% - - 44° 76.3° 70.7° - - -
6/21 4:20am 56 2 G 4 72° 36% - - 44° 76.3° 70.7° - - -
6/21 4:10am 66 1 G 4 71° 38% - - 45° 76.3° 70.7° - - -
6/21 4:00am 48 1 G 5 72° 36% - - 44° 76.3° 71.5° - - -
6/21 3:50am 64 2 G 3 72° 37% - - 44° 76.3° 71.5° - - -
6/21 3:40am 36 1 G 3 73° 37% - - 44° 76.3° 71.5° - - -
6/21 3:30am 37 2 G 5 73° 36% - - 45° 76.3° 71.5° - - -
6/21 3:20am 60 2 G 6 73° 36% - - 44° 76.3° 71.5° - - -
6/21 3:10am 52 2 G 5 73° 36% - - 45° 76.3° 71.5° - - -
6/21 3:00am 65 4 G 6 74° 35% - - 44° 76.3° 71.5° - - -
6/21 2:50am 51 1 G 4 73° 35% - - 44° 76.3° 71.5° - - -
6/21 2:40am 54 1 G 3 73° 35% - - 44° 76.3° 71.5° - - -
6/21 2:30am 25 1 G 2 72° 38% - - 45° 76.3° 71.5° - - -
6/21 2:20am 25 1 G 2 73° 35% - - 44° 76.3° 72.4° - - -
6/21 2:10am 72 4 G 7 75° 32% - - 43° 76.3° 73.5° - - -
6/21 2:00am 70 3 G 5 75° 32% - - 43° 76.3° 73.5° - - -
6/21 1:50am 69 2 G 5 75° 32% - - 43° 76.3° 73.5° - - -
6/21 1:40am 52 2 G 4 74° 33% - - 43° 76.3° 73.5° - - -
6/21 1:30am 33 1 G 4 75° 31% - - 43° 76.3° 73.5° - - -
6/21 1:20am 44 2 G 4 75° 32% - - 43° 76.3° 73.5° - - -
6/21 1:10am 37 1 G 3 74° 35% - - 45° 76.3° 73.5° - - -
6/21 1:00am 35 1 G 5 76° 31% - - 43° 76.3° 74.5° - - -
6/21 12:50am 60 3 G 7 75° 31% - - 43° 76° 74.7° - - -
6/21 12:40am 50 2 G 6 75° 32% - - 43° 75.9° 74.7° - - -
6/21 12:30am 55 3 G 5 75° 33% - - 44° 75.9° 74.7° - - -
6/21 12:20am 71 3 G 5 76° 32% - - 44° 75.9° 75.1° - - -
6/21 12:10am 64 2 G 4 76° 34% - - 45° 75.9° 75.1° - - -
6/21 12:00am 60 2 G 5 75° 36% - - 46° 99.2° 68.2° - - -
6/20 11:50pm 74 1 G 3 75° 37% - - 47° 99.2° 68.2° - - -
6/20 11:40pm 71 1 G 3 76° 37% - - 47° 99.2° 68.2° - - -
6/20 11:30pm 63 2 G 6 76° 36% - - 47° 99.2° 68.2° - - -
6/20 11:20pm 66 2 G 5 77° 36% - - 48° 99.2° 68.2° - - -
6/20 11:10pm 53 2 G 6 77° 38% - - 49° 99.2° 68.2° - - -
6/20 11:00pm 36 1 G 3 75° 43% - - 51° 99.2° 68.2° - - -
6/20 10:50pm 35 1 G 4 77° 41% - - 51° 99.2° 68.2° - - -
6/20 10:40pm 64 2 G 5 77° 41% - - 51° 99.2° 68.2° - - -
6/20 10:30pm 55 1 G 3 76° 42% - - 52° 99.2° 68.2° - - -
6/20 10:20pm 53 2 G 5 77° 41% - - 52° 99.2° 68.2° - - -
6/20 10:10pm 53 2 G 5 77° 42% - - 52° 99.2° 68.2° - - -
6/20 10:00pm 16 1 G 5 77° 44% - - 53° 99.2° 68.2° - - -
6/20 9:50pm 59 3 G 5 77° 43% - - 53° 99.2° 68.2° - - -
6/20 9:40pm 54 3 G 4 77° 44% - - 54° 99.2° 68.2° - - -
6/20 9:30pm 27 1 G 4 78° 43% - - 54° 99.2° 68.2° - - -
6/20 9:20pm 59 2 G 4 78° 43% - - 54° 99.2° 68.2° - - -
6/20 9:10pm 56 1 G 3 78° 43% - - 54° 99.2° 68.2° - - -
6/20 9:00pm 24 1 G 3 78° 42% - - 53° 99.2° 68.2° - - -
6/20 8:50pm 67 2 G 4 79° 42% - - 54° 99.2° 68.2° - - -
6/20 8:40pm 65 2 G 4 80° 40% - - 53° 99.2° 68.2° - - -
6/20 8:30pm 76 3 G 4 81° 40% - - 55° 99.2° 68.2° - - -
6/20 8:20pm 91 2 G 4 82° 37% - - 53° 99.2° 68.2° - - -
6/20 8:10pm 130 2 G 4 82° 35% - - 52° 99.2° 68.2° - - -
6/20 8:00pm 141 2 G 3 84° 33% - - 52° 99.2° 68.2° - - -
6/20 7:50pm 42 0 G 2 86° 31% - - 52° 99.2° 68.2° - - -
6/20 7:40pm 234 1 G 3 87° 30% - - 52° 99.2° 68.2° - - -
6/20 7:30pm 232 1 G 3 87° 30% - - 52° 99.2° 68.2° - - -
6/20 7:20pm 218 2 G 4 87° 29% - - 51° 99.2° 68.2° - - -
6/20 7:10pm 214 3 G 5 88° 29% - - 51° 99.2° 68.2° - - -
6/20 7:00pm 214 4 G 7 88° 28% - - 51° 99.2° 68.2° - - -
6/20 6:50pm 219 4 G 6 89° 28% - - 51° 99.2° 68.2° - - -
6/20 6:40pm 225 5 G 8 89° 27% - - 51° 99.2° 68.2° - - -
6/20 6:30pm 219 5 G 9 89° 27% - - 51° 99.2° 68.2° - - -
6/20 6:20pm 222 6 G 10 89° 27% - - 51° 99.2° 68.2° - - -
6/20 6:10pm 221 6 G 9 90° 26% - - 51° 99.2° 68.2° - - -
6/20 6:00pm 215 6 G 9 90° 26% - - 51° 99.2° 68.2° - - -